createdAt,value
2023-04-26T00:00:06.241Z,101001.34
2023-04-26T00:02:36.528Z,101013.47
2023-04-26T00:05:07.344Z,101014.50
2023-04-26T00:07:37.932Z,101010.38
2023-04-26T00:10:06.432Z,101014.97
2023-04-26T00:12:34.884Z,101012.56
2023-04-26T00:15:03.226Z,101007.63
2023-04-26T00:17:31.590Z,101020.06
2023-04-26T00:20:01.503Z,101010.03
2023-04-26T00:22:32.789Z,101010.94
2023-04-26T00:25:02.670Z,101006.66
2023-04-26T00:27:30.827Z,101002.78
2023-04-26T00:29:59.284Z,101007.91
2023-04-26T00:32:27.656Z,100996.84
2023-04-26T00:34:59.828Z,100994.75
2023-04-26T00:37:29.677Z,100989.81
2023-04-26T00:39:58.297Z,100996.03
2023-04-26T00:42:28.222Z,100994.63
2023-04-26T00:44:57.577Z,100996.03
2023-04-26T00:47:49.130Z,100991.91
2023-04-26T00:50:17.658Z,100996.84
2023-04-26T00:52:48.038Z,100994.03
2023-04-26T00:55:17.121Z,100987.88
2023-04-26T00:57:46.092Z,100986.72
2023-04-26T01:00:14.636Z,100986.13
2023-04-26T01:02:43.141Z,100993.47
2023-04-26T01:05:12.004Z,100989.72
2023-04-26T01:07:40.901Z,100990.41
2023-04-26T01:10:11.171Z,100989.00
2023-04-26T01:12:39.634Z,100987.63
2023-04-26T01:15:09.866Z,100985.63
2023-04-26T01:17:38.311Z,100990.63
2023-04-26T01:20:08.531Z,100988.00
2023-04-26T01:22:38.033Z,100987.88
2023-04-26T01:25:09.054Z,100988.34
2023-04-26T01:27:39.878Z,100996.28
2023-04-26T01:30:09.644Z,101001.66
2023-04-26T01:32:38.069Z,101004.72
2023-04-26T01:35:07.278Z,100997.09
2023-04-26T01:37:35.458Z,101001.88
2023-04-26T01:40:07.075Z,100999.63
2023-04-26T01:42:35.364Z,101002.34
2023-04-26T01:45:03.668Z,100998.00
2023-04-26T01:47:31.799Z,100999.72
2023-04-26T01:49:59.963Z,100998.88
2023-04-26T01:52:28.087Z,100994.41
2023-04-26T01:54:57.276Z,100989.47
2023-04-26T01:57:26.885Z,101000.22
2023-04-26T01:59:56.690Z,100997.03
2023-04-26T02:02:39.222Z,101004.88
2023-04-26T02:05:07.829Z,101002.84
2023-04-26T02:07:38.750Z,101003.75
2023-04-26T02:10:07.515Z,101005.00
2023-04-26T02:12:37.014Z,101006.66
2023-04-26T02:15:06.164Z,100996.78
2023-04-26T02:17:34.606Z,101002.47
2023-04-26T02:20:02.951Z,101003.56
2023-04-26T02:22:34.052Z,101004.19
2023-04-26T02:25:02.419Z,101003.63
2023-04-26T02:27:30.730Z,101002.44
2023-04-26T02:30:00.389Z,101001.84
2023-04-26T02:32:28.670Z,100998.84
2023-04-26T02:34:56.951Z,101002.75
2023-04-26T02:37:25.268Z,100998.03
2023-04-26T02:39:53.628Z,100999.84
2023-04-26T02:42:22.049Z,101005.44
2023-04-26T02:44:50.249Z,101005.28
2023-04-26T02:47:38.539Z,100999.16
2023-04-26T02:50:07.849Z,101006.03
2023-04-26T02:52:36.536Z,100999.75
2023-04-26T02:55:04.947Z,100993.19
2023-04-26T02:57:33.415Z,100990.63
2023-04-26T03:00:02.020Z,100996.47
2023-04-26T03:02:36.615Z,100987.84
2023-04-26T03:05:06.798Z,100985.00
2023-04-26T03:07:35.103Z,100991.66
2023-04-26T03:10:04.743Z,100992.53
2023-04-26T03:12:32.981Z,100992.53
2023-04-26T03:15:03.498Z,100998.41
2023-04-26T03:17:31.804Z,100994.09
2023-04-26T03:20:02.381Z,100992.66
2023-04-26T03:22:32.520Z,100997.06
2023-04-26T03:25:00.735Z,100990.16
2023-04-26T03:27:28.927Z,101004.22
2023-04-26T03:29:57.147Z,100988.63
2023-04-26T03:32:25.569Z,100984.13
2023-04-26T03:34:53.767Z,100987.69
2023-04-26T03:37:22.030Z,100984.63
2023-04-26T03:39:52.552Z,100978.03
2023-04-26T03:42:21.141Z,100980.44
2023-04-26T03:44:50.332Z,100981.31
2023-04-26T03:47:18.452Z,100987.59
2023-04-26T03:49:46.626Z,100981.03
2023-04-26T03:52:15.045Z,100984.81
2023-04-26T03:54:43.296Z,100989.34
2023-04-26T03:57:12.956Z,100982.78
2023-04-26T03:59:41.376Z,100978.16
2023-04-26T04:02:09.643Z,100979.38
2023-04-26T04:04:38.100Z,100986.88
2023-04-26T04:07:06.863Z,100978.66
2023-04-26T04:09:35.090Z,100979.66
2023-04-26T04:12:03.814Z,100978.78
2023-04-26T04:14:47.623Z,100988.41
2023-04-26T04:17:15.924Z,100981.47
2023-04-26T04:19:44.889Z,100987.50
2023-04-26T04:22:13.128Z,100984.03
2023-04-26T04:24:42.393Z,100987.16
2023-04-26T04:27:32.141Z,100985.28
2023-04-26T04:30:04.586Z,100993.09
2023-04-26T04:32:33.994Z,101000.50
2023-04-26T04:35:05.615Z,100983.41
2023-04-26T04:37:34.697Z,100987.31
2023-04-26T04:40:03.014Z,100999.88
2023-04-26T04:42:33.761Z,100992.84
2023-04-26T04:45:03.375Z,100995.75
2023-04-26T04:47:31.623Z,100996.59
2023-04-26T04:50:06.060Z,100998.03
2023-04-26T04:52:36.468Z,100999.38
2023-04-26T04:55:05.201Z,100994.69
2023-04-26T04:57:33.427Z,100995.59
2023-04-26T05:00:09.978Z,100995.38
2023-04-26T05:02:38.493Z,100999.84
2023-04-26T05:05:07.429Z,101006.44
2023-04-26T05:07:35.869Z,101008.00
2023-04-26T05:10:04.628Z,101012.66
2023-04-26T05:12:33.392Z,101006.94
2023-04-26T05:15:03.879Z,101009.94
2023-04-26T05:17:32.484Z,101016.06
2023-04-26T05:20:06.410Z,101016.16
2023-04-26T05:22:36.760Z,101022.63
2023-04-26T05:25:05.553Z,101015.41
2023-04-26T05:27:33.718Z,101031.38
2023-04-26T05:30:03.564Z,101032.41
2023-04-26T05:32:34.198Z,101030.53
2023-04-26T05:35:02.626Z,101028.56
2023-04-26T05:37:31.579Z,101030.94
2023-04-26T05:39:59.785Z,101038.09
2023-04-26T05:42:28.049Z,101030.16
2023-04-26T05:44:57.936Z,101041.53
2023-04-26T05:47:27.797Z,101041.06
2023-04-26T05:49:56.057Z,101033.50
2023-04-26T05:52:24.445Z,101040.31
2023-04-26T05:54:53.033Z,101048.78
2023-04-26T05:57:21.510Z,101051.19
2023-04-26T05:59:49.810Z,101040.47
2023-04-26T06:02:18.045Z,101045.09
2023-04-26T06:04:47.794Z,101046.13
2023-04-26T06:07:18.431Z,101054.34
2023-04-26T06:09:46.857Z,101045.16
2023-04-26T06:12:16.433Z,101044.69
2023-04-26T06:14:44.627Z,101056.75
2023-04-26T06:17:12.857Z,101057.03
2023-04-26T06:19:41.661Z,101054.91
2023-04-26T06:22:11.256Z,101059.09
2023-04-26T06:24:39.405Z,101054.34
2023-04-26T06:27:07.790Z,101060.84
2023-04-26T06:29:36.066Z,101064.78
2023-04-26T06:32:04.625Z,101066.56
2023-04-26T06:34:32.812Z,101062.13
2023-04-26T06:37:00.968Z,101056.09
2023-04-26T06:39:30.667Z,101066.31
2023-04-26T06:41:58.933Z,101068.28
2023-04-26T06:44:27.229Z,101070.13
2023-04-26T06:46:55.515Z,101066.50
2023-04-26T06:49:23.778Z,101070.78
2023-04-26T06:51:53.005Z,101075.63
2023-04-26T06:54:21.239Z,101075.00
2023-04-26T06:56:50.766Z,101071.69
2023-04-26T06:59:19.014Z,101070.91
2023-04-26T07:01:47.228Z,101069.50
2023-04-26T07:04:18.733Z,101066.00
2023-04-26T07:07:07.254Z,101058.19
2023-04-26T07:09:35.719Z,101053.34
2023-04-26T07:12:05.601Z,101059.91
2023-04-26T07:14:37.124Z,101062.66
2023-04-26T07:17:06.891Z,101056.91
2023-04-26T07:19:35.340Z,101058.97
2023-04-26T07:22:03.564Z,101058.38
2023-04-26T07:24:31.826Z,101059.28
2023-04-26T07:27:00.107Z,101057.03
2023-04-26T07:29:29.761Z,101064.63
2023-04-26T07:31:58.832Z,101064.19
2023-04-26T07:34:47.277Z,101067.03
2023-04-26T07:37:15.989Z,101064.13
2023-04-26T07:39:44.203Z,101064.94
2023-04-26T07:42:12.471Z,101065.47
2023-04-26T07:44:42.100Z,101058.94
2023-04-26T07:47:14.352Z,101056.56
2023-04-26T07:49:42.639Z,101057.91
2023-04-26T07:52:10.766Z,101052.97
2023-04-26T07:54:40.213Z,101048.94
2023-04-26T07:57:08.493Z,101051.63
2023-04-26T07:59:36.875Z,101056.97
2023-04-26T08:02:07.212Z,101058.56
2023-04-26T08:04:35.708Z,101054.03
2023-04-26T08:07:04.149Z,101054.09
2023-04-26T08:09:32.566Z,101055.41
2023-04-26T08:12:01.387Z,101058.34
2023-04-26T08:14:30.826Z,101053.88
2023-04-26T08:16:59.076Z,101055.16
2023-04-26T08:19:31.578Z,101050.41
2023-04-26T08:21:59.939Z,101042.59
2023-04-26T08:24:28.268Z,101044.75
2023-04-26T08:26:58.538Z,101045.38
2023-04-26T08:29:27.768Z,101043.63
2023-04-26T08:31:56.535Z,101053.28
2023-04-26T08:34:24.953Z,101049.66
2023-04-26T08:36:54.564Z,101051.25
2023-04-26T08:39:22.980Z,101044.69
2023-04-26T08:41:53.923Z,101043.91
2023-04-26T08:44:24.238Z,101052.38
2023-04-26T08:46:58.824Z,101043.94
2023-04-26T08:49:33.657Z,101051.81
2023-04-26T08:52:04.840Z,101058.91
2023-04-26T08:54:33.602Z,101051.53
2023-04-26T08:57:01.785Z,101051.47
2023-04-26T08:59:45.116Z,101061.56
2023-04-26T09:02:17.330Z,101053.63
2023-04-26T09:04:47.164Z,101054.19
2023-04-26T09:07:20.659Z,101049.13
2023-04-26T09:09:49.905Z,101047.06
2023-04-26T09:12:19.216Z,101042.56
2023-04-26T09:14:48.690Z,101046.06
2023-04-26T09:17:26.899Z,101056.28
2023-04-26T09:19:55.569Z,101049.75
2023-04-26T09:22:34.653Z,101054.59
2023-04-26T09:25:04.918Z,101053.84
2023-04-26T09:27:34.177Z,101056.16
2023-04-26T09:30:05.498Z,101052.34
2023-04-26T09:32:51.063Z,101060.78
2023-04-26T09:35:22.364Z,101061.03
2023-04-26T09:37:59.350Z,101065.44
2023-04-26T09:40:29.508Z,101065.09
2023-04-26T09:42:58.827Z,101060.44
2023-04-26T09:45:27.978Z,101061.56
2023-04-26T09:47:56.308Z,101055.66
2023-04-26T09:50:28.504Z,101048.34
2023-04-26T09:52:58.520Z,101059.44
2023-04-26T09:55:34.779Z,101050.78
2023-04-26T09:58:09.923Z,101059.41
2023-04-26T10:00:39.099Z,101050.34
2023-04-26T10:03:09.882Z,101049.75
2023-04-26T10:05:38.900Z,101043.50
2023-04-26T10:08:26.806Z,101043.25
2023-04-26T10:10:56.511Z,101035.81
2023-04-26T10:13:25.918Z,101040.25
2023-04-26T10:15:54.681Z,101032.78
2023-04-26T10:18:23.101Z,101033.72
2023-04-26T10:20:53.183Z,101035.28
2023-04-26T10:23:22.532Z,101033.66
2023-04-26T10:25:52.559Z,101028.31
2023-04-26T10:28:41.321Z,101037.06
2023-04-26T10:31:10.627Z,101032.81
2023-04-26T10:33:39.128Z,101031.53
2023-04-26T10:36:09.118Z,101026.50
2023-04-26T10:38:38.571Z,101027.34
2023-04-26T10:41:25.676Z,101025.72
2023-04-26T10:43:55.789Z,101030.38
2023-04-26T10:46:37.631Z,101016.22
2023-04-26T10:49:16.444Z,101014.84
2023-04-26T10:52:03.638Z,101021.47
2023-04-26T10:54:46.390Z,101009.81
2023-04-26T10:57:15.344Z,101011.84
2023-04-26T11:00:09.159Z,101009.53
2023-04-26T11:02:54.781Z,101020.97
2023-04-26T11:05:42.258Z,101011.22
2023-04-26T11:08:20.386Z,101003.50
2023-04-26T11:11:03.541Z,101015.50
2023-04-26T11:13:31.940Z,101011.63
2023-04-26T11:16:02.894Z,101011.91
2023-04-26T11:18:32.915Z,101007.38
2023-04-26T11:21:01.393Z,101015.72
2023-04-26T11:23:31.802Z,101016.59
2023-04-26T11:26:09.724Z,101011.34
2023-04-26T11:28:44.472Z,101017.97
2023-04-26T11:31:14.486Z,101006.28
2023-04-26T11:33:44.065Z,101006.88
2023-04-26T11:36:12.871Z,101004.59
2023-04-26T11:38:41.104Z,101004.75
2023-04-26T11:41:10.687Z,101005.50
2023-04-26T11:43:40.346Z,101010.13
2023-04-26T11:46:12.017Z,101000.09
2023-04-26T11:48:40.855Z,101003.09
2023-04-26T11:51:11.902Z,100998.03
2023-04-26T11:53:40.772Z,101001.53
2023-04-26T11:56:16.785Z,101000.28
2023-04-26T11:58:45.652Z,100997.84
2023-04-26T12:01:21.215Z,100999.72
2023-04-26T12:03:51.723Z,101002.44
2023-04-26T12:06:22.098Z,101009.84
2023-04-26T12:08:51.603Z,101011.28
2023-04-26T12:11:22.026Z,101005.78
2023-04-26T12:13:50.987Z,101012.88
2023-04-26T12:16:26.228Z,101008.06
2023-04-26T12:18:56.871Z,101007.78
2023-04-26T12:21:29.870Z,101003.63
2023-04-26T12:23:59.560Z,101006.88
2023-04-26T12:26:44.692Z,101010.16
2023-04-26T12:29:13.397Z,101013.75
2023-04-26T12:31:44.540Z,101008.34
2023-04-26T12:34:14.751Z,101007.34
2023-04-26T12:36:44.651Z,101007.13
2023-04-26T12:39:17.045Z,101020.34
2023-04-26T12:41:48.453Z,101014.84
2023-04-26T12:44:19.069Z,101004.69
2023-04-26T12:46:49.823Z,101010.59
2023-04-26T12:49:18.794Z,101010.41
2023-04-26T12:51:48.471Z,101004.19
2023-04-26T12:54:16.986Z,101014.13
2023-04-26T12:56:46.111Z,101012.31
2023-04-26T12:59:14.702Z,101012.53
2023-04-26T13:01:43.022Z,101006.16
2023-04-26T13:04:11.580Z,101007.41
2023-04-26T13:06:39.934Z,100998.66
2023-04-26T13:09:12.653Z,101002.50
2023-04-26T13:11:41.578Z,101002.97
2023-04-26T13:14:09.852Z,100998.69
2023-04-26T13:16:42.268Z,100991.50
2023-04-26T13:19:10.716Z,100995.16
2023-04-26T13:21:39.114Z,100983.16
2023-04-26T13:24:07.565Z,101003.09
2023-04-26T13:26:37.464Z,100994.13
2023-04-26T13:29:09.061Z,101008.91
2023-04-26T13:31:39.798Z,100999.34
2023-04-26T13:34:08.742Z,101002.50
2023-04-26T13:36:38.090Z,101010.50
2023-04-26T13:39:08.048Z,101011.91
2023-04-26T13:41:38.086Z,101015.81
2023-04-26T13:44:06.746Z,101006.31
2023-04-26T13:46:34.968Z,101013.53
2023-04-26T13:49:03.544Z,101005.63
2023-04-26T13:51:34.146Z,101008.34
2023-04-26T13:54:02.709Z,101000.09
2023-04-26T13:56:31.736Z,100999.81
2023-04-26T13:59:06.634Z,100994.44
2023-04-26T14:01:36.272Z,101001.91
2023-04-26T14:04:05.054Z,100998.09
2023-04-26T14:06:45.754Z,100996.72
2023-04-26T14:09:16.249Z,100998.72
2023-04-26T14:11:47.367Z,100997.03
2023-04-26T14:14:21.766Z,100982.03
2023-04-26T14:16:50.636Z,100990.66
2023-04-26T14:19:19.218Z,100990.44
2023-04-26T14:21:47.762Z,100991.13
2023-04-26T14:24:16.522Z,100991.63
2023-04-26T14:26:44.845Z,100993.16
2023-04-26T14:29:13.065Z,100997.78
2023-04-26T14:31:43.118Z,100993.56
2023-04-26T14:34:11.349Z,100999.13
2023-04-26T14:36:39.925Z,100994.75
2023-04-26T14:39:08.222Z,101000.31
2023-04-26T14:41:36.411Z,100995.09
2023-04-26T14:44:04.532Z,100991.97
2023-04-26T14:46:32.852Z,100996.16
2023-04-26T14:49:02.630Z,100998.41
2023-04-26T14:51:32.072Z,100996.34
2023-04-26T14:54:00.620Z,101002.25
2023-04-26T14:56:33.148Z,100995.56
2023-04-26T14:59:01.918Z,100993.03
2023-04-26T15:01:33.509Z,100995.22
2023-04-26T15:04:03.213Z,100993.16
2023-04-26T15:06:33.563Z,100994.22
2023-04-26T15:09:02.228Z,100981.50
2023-04-26T15:11:32.834Z,100985.97
2023-04-26T15:14:01.944Z,100977.47
2023-04-26T15:16:32.533Z,100984.69
2023-04-26T15:19:01.593Z,100980.41
2023-04-26T15:21:32.894Z,100976.78
2023-04-26T15:24:03.786Z,100971.91
2023-04-26T15:26:34.060Z,100988.09
2023-04-26T15:29:02.779Z,100981.63
2023-04-26T15:31:31.515Z,100975.25
2023-04-26T15:34:00.190Z,100969.63
2023-04-26T15:36:29.861Z,100980.19
2023-04-26T15:38:59.460Z,100969.22
2023-04-26T15:41:28.029Z,100972.88
2023-04-26T15:43:57.377Z,100965.78
2023-04-26T15:46:26.537Z,100977.19
2023-04-26T15:48:54.931Z,100977.13
2023-04-26T15:51:23.349Z,100969.38
2023-04-26T15:53:52.172Z,100963.16
2023-04-26T15:56:21.828Z,100974.19
2023-04-26T15:58:51.241Z,100972.25
2023-04-26T16:01:21.543Z,100975.97
2023-04-26T16:03:53.348Z,100979.25
2023-04-26T16:06:23.574Z,100974.28
2023-04-26T16:08:54.014Z,100969.28
2023-04-26T16:11:26.631Z,100970.09
2023-04-26T16:13:56.257Z,100977.56
2023-04-26T16:16:24.939Z,100973.66
2023-04-26T16:18:54.982Z,100974.47
2023-04-26T16:21:24.055Z,100973.03
2023-04-26T16:23:53.254Z,100982.72
2023-04-26T16:26:22.033Z,100978.72
2023-04-26T16:28:51.836Z,100970.09
2023-04-26T16:31:20.218Z,100964.69
2023-04-26T16:33:48.587Z,100961.56
2023-04-26T16:36:17.240Z,100967.41
2023-04-26T16:38:45.649Z,100968.22
2023-04-26T16:41:14.138Z,100966.56
2023-04-26T16:43:43.395Z,100984.22
2023-04-26T16:46:13.915Z,100971.75
2023-04-26T16:48:43.079Z,100974.13
2023-04-26T16:51:12.684Z,100970.59
2023-04-26T16:53:41.695Z,100978.34
2023-04-26T16:56:16.294Z,100975.50
2023-04-26T16:58:45.255Z,100974.97
2023-04-26T17:01:16.576Z,100985.13
2023-04-26T17:03:48.807Z,100984.91
2023-04-26T17:06:17.516Z,100983.09
2023-04-26T17:08:45.903Z,100985.34
2023-04-26T17:11:15.091Z,100976.09
2023-04-26T17:13:43.922Z,100990.34
2023-04-26T17:16:15.817Z,100986.34
2023-04-26T17:18:46.433Z,100986.41
2023-04-26T17:21:17.043Z,100989.00
2023-04-26T17:23:54.706Z,100984.47
2023-04-26T17:26:26.380Z,100990.50
2023-04-26T17:28:56.148Z,100983.69
2023-04-26T17:31:26.029Z,100993.59
2023-04-26T17:33:57.051Z,100989.78
2023-04-26T17:36:26.484Z,100991.41
2023-04-26T17:38:54.895Z,100994.66
2023-04-26T17:41:23.087Z,100990.63
2023-04-26T17:43:52.453Z,100992.63
2023-04-26T17:46:21.537Z,100990.81
2023-04-26T17:48:50.817Z,100989.78
2023-04-26T17:51:20.938Z,100993.41
2023-04-26T17:53:52.488Z,100982.56
2023-04-26T17:56:23.590Z,100981.47
2023-04-26T17:58:51.939Z,100984.25
2023-04-26T18:01:21.430Z,100989.84
2023-04-26T18:03:53.045Z,100989.84
2023-04-26T18:06:22.973Z,100990.66
2023-04-26T18:08:51.164Z,100993.22
2023-04-26T18:11:22.459Z,100998.41
2023-04-26T18:13:50.900Z,100998.16
2023-04-26T18:16:20.033Z,101004.75
2023-04-26T18:18:48.585Z,100994.69
2023-04-26T18:21:17.424Z,101001.53
2023-04-26T18:23:47.024Z,101012.44
2023-04-26T18:26:15.310Z,101012.19
2023-04-26T18:28:46.070Z,101010.81
2023-04-26T18:31:14.467Z,101015.47
2023-04-26T18:33:43.131Z,101017.69
2023-04-26T18:36:14.284Z,101019.59
2023-04-26T18:38:42.922Z,101021.50
2023-04-26T18:41:12.805Z,101024.50
2023-04-26T18:43:41.665Z,101023.69
2023-04-26T18:46:10.433Z,101026.69
2023-04-26T18:48:39.267Z,101031.84
2023-04-26T18:51:11.251Z,101026.69
2023-04-26T18:53:41.396Z,101034.84
2023-04-26T18:56:11.191Z,101035.66
2023-04-26T18:58:43.681Z,101042.44
2023-04-26T19:01:14.808Z,101035.34
2023-04-26T19:03:44.234Z,101039.69
2023-04-26T19:06:15.119Z,101035.59
2023-04-26T19:08:44.522Z,101040.50
2023-04-26T19:11:13.236Z,101039.38
2023-04-26T19:13:43.011Z,101044.53
2023-04-26T19:16:17.786Z,101043.13
2023-04-26T19:18:47.202Z,101051.53
2023-04-26T19:21:15.845Z,101045.22
2023-04-26T19:23:46.592Z,101053.63
2023-04-26T19:26:15.942Z,101055.25
2023-04-26T19:28:48.115Z,101056.59
2023-04-26T19:31:17.302Z,101055.78
2023-04-26T19:33:45.982Z,101049.75
2023-04-26T19:36:15.228Z,101051.09
2023-04-26T19:38:43.960Z,101045.91
2023-04-26T19:41:13.190Z,101062.75
2023-04-26T19:43:42.108Z,101059.78
2023-04-26T19:46:15.876Z,101058.66
2023-04-26T19:48:44.407Z,101058.91
2023-04-26T19:51:16.332Z,101055.19
2023-04-26T19:53:44.688Z,101053.84
2023-04-26T19:56:12.992Z,101060.09
2023-04-26T19:58:44.311Z,101063.38
2023-04-26T20:01:12.738Z,101064.50
2023-04-26T20:03:42.572Z,101069.38
2023-04-26T20:06:14.010Z,101069.13
2023-04-26T20:08:42.456Z,101069.66
2023-04-26T20:11:15.063Z,101070.16
2023-04-26T20:13:43.544Z,101081.31
2023-04-26T20:16:12.581Z,101080.78
2023-04-26T20:18:42.348Z,101081.88
2023-04-26T20:21:12.181Z,101082.94
2023-04-26T20:23:40.456Z,101083.00
2023-04-26T20:26:08.662Z,101076.19
2023-04-26T20:28:39.719Z,101085.16
2023-04-26T20:31:08.287Z,101094.38
2023-04-26T20:33:36.692Z,101086.44
2023-04-26T20:36:06.939Z,101086.72
2023-04-26T20:38:35.469Z,101091.34
2023-04-26T20:41:04.543Z,101091.63
2023-04-26T20:43:32.863Z,101085.06
2023-04-26T20:46:01.668Z,101094.25
2023-04-26T20:48:41.007Z,101095.00
2023-04-26T20:51:10.617Z,101090.09
2023-04-26T20:53:40.174Z,101094.72
2023-04-26T20:56:08.673Z,101086.75
2023-04-26T20:58:37.039Z,101092.69
2023-04-26T21:01:07.357Z,101090.47
2023-04-26T21:03:36.303Z,101088.81
2023-04-26T21:06:04.643Z,101096.66
2023-04-26T21:08:36.637Z,101098.31
2023-04-26T21:11:06.288Z,101098.56
2023-04-26T21:13:36.029Z,101093.91
2023-04-26T21:16:04.819Z,101087.91
2023-04-26T21:18:34.400Z,101089.75
2023-04-26T21:21:10.186Z,101091.09
2023-04-26T21:23:50.957Z,101091.66
2023-04-26T21:26:19.945Z,101082.16
2023-04-26T21:28:48.844Z,101088.88
2023-04-26T21:31:18.759Z,101090.56
2023-04-26T21:33:48.104Z,101091.66
2023-04-26T21:36:19.443Z,101089.13
2023-04-26T21:38:50.505Z,101096.19
2023-04-26T21:41:19.425Z,101092.34
2023-04-26T21:43:48.076Z,101094.25
2023-04-26T21:46:17.071Z,101088.84
2023-04-26T21:48:45.797Z,101087.47
2023-04-26T21:51:14.557Z,101098.63
2023-04-26T21:53:43.690Z,101099.97
2023-04-26T21:56:16.140Z,101097.41
2023-04-26T21:58:48.043Z,101108.72
2023-04-26T22:01:19.779Z,101096.94
2023-04-26T22:03:50.367Z,101096.56
2023-04-26T22:06:18.707Z,101102.41
2023-04-26T22:08:47.356Z,101103.50
2023-04-26T22:11:17.685Z,101098.00
2023-04-26T22:13:45.913Z,101097.69
2023-04-26T22:16:14.260Z,101102.75
2023-04-26T22:18:45.584Z,101104.34
2023-04-26T22:21:13.981Z,101104.50
2023-04-26T22:23:42.137Z,101111.44
2023-04-26T22:26:24.204Z,101114.94
2023-04-26T22:28:53.812Z,101113.16
2023-04-26T22:31:22.017Z,101102.22
2023-04-26T22:33:50.384Z,101112.16
2023-04-26T22:36:18.573Z,101116.28
2023-04-26T22:38:46.839Z,101114.97
2023-04-26T22:41:15.074Z,101109.88
2023-04-26T22:43:44.612Z,101117.63
2023-04-26T22:46:14.186Z,101117.22
2023-04-26T22:48:42.633Z,101114.00
2023-04-26T22:51:10.896Z,101115.81
2023-04-26T22:53:39.260Z,101120.59
2023-04-26T22:56:07.710Z,101123.72
2023-04-26T22:58:35.981Z,101130.19
2023-04-26T23:01:04.314Z,101122.06
2023-04-26T23:03:36.150Z,101128.94
2023-04-26T23:06:05.111Z,101134.81
2023-04-26T23:08:33.276Z,101125.44
2023-04-26T23:11:01.510Z,101126.09
2023-04-26T23:13:30.252Z,101129.41
2023-04-26T23:15:58.674Z,101125.44
2023-04-26T23:18:27.383Z,101136.31
2023-04-26T23:20:56.975Z,101133.66
2023-04-26T23:23:25.358Z,101133.19
2023-04-26T23:25:53.660Z,101136.28
2023-04-26T23:28:21.796Z,101141.22
2023-04-26T23:30:50.152Z,101139.22
2023-04-26T23:33:18.347Z,101136.63
2023-04-26T23:35:46.540Z,101143.00
2023-04-26T23:38:16.160Z,101139.59
2023-04-26T23:40:44.302Z,101140.66
2023-04-26T23:43:13.819Z,101145.47
2023-04-26T23:45:47.010Z,101147.47
2023-04-26T23:48:15.852Z,101145.94
2023-04-26T23:50:44.117Z,101143.47
2023-04-26T23:53:12.271Z,101146.66
2023-04-26T23:55:41.806Z,101148.19
2023-04-26T23:58:09.977Z,101147.00
